sensor_id;sensor_type;location;lat;lon;timestamp;P1;durP1;ratioP1;P2;durP2;ratioP2
5475;SDS011;2760;50.000;9.194;2022-11-11T00:00:59;19.27;;;11.10;;
5475;SDS011;2760;50.000;9.194;2022-11-11T00:03:46;17.53;;;10.83;;
5475;SDS011;2760;50.000;9.194;2022-11-11T00:06:32;15.27;;;7.83;;
5475;SDS011;2760;50.000;9.194;2022-11-11T00:09:19;24.67;;;7.73;;
5475;SDS011;2760;50.000;9.194;2022-11-11T00:12:05;18.40;;;7.60;;
5475;SDS011;2760;50.000;9.194;2022-11-11T00:14:51;17.30;;;7.83;;
5475;SDS011;2760;50.000;9.194;2022-11-11T00:17:38;13.53;;;7.97;;
5475;SDS011;2760;50.000;9.194;2022-11-11T00:20:41;15.60;;;7.57;;
5475;SDS011;2760;50.000;9.194;2022-11-11T00:23:46;18.50;;;8.20;;
5475;SDS011;2760;50.000;9.194;2022-11-11T00:26:50;13.47;;;7.30;;
5475;SDS011;2760;50.000;9.194;2022-11-11T00:29:36;16.10;;;8.90;;
5475;SDS011;2760;50.000;9.194;2022-11-11T00:32:24;15.33;;;8.63;;
5475;SDS011;2760;50.000;9.194;2022-11-11T00:35:14;23.07;;;9.83;;
5475;SDS011;2760;50.000;9.194;2022-11-11T00:38:18;19.03;;;9.90;;
5475;SDS011;2760;50.000;9.194;2022-11-11T00:41:22;18.50;;;10.33;;
5475;SDS011;2760;50.000;9.194;2022-11-11T00:44:13;17.40;;;10.30;;
5475;SDS011;2760;50.000;9.194;2022-11-11T00:46:59;12.00;;;8.67;;
5475;SDS011;2760;50.000;9.194;2022-11-11T00:50:03;16.83;;;9.37;;
5475;SDS011;2760;50.000;9.194;2022-11-11T00:53:08;13.60;;;9.10;;
5475;SDS011;2760;50.000;9.194;2022-11-11T00:55:55;14.33;;;9.30;;
5475;SDS011;2760;50.000;9.194;2022-11-11T00:58:42;13.53;;;7.10;;
5475;SDS011;2760;50.000;9.194;2022-11-11T01:01:31;9.73;;;6.67;;
5475;SDS011;2760;50.000;9.194;2022-11-11T01:04:17;12.13;;;6.43;;
5475;SDS011;2760;50.000;9.194;2022-11-11T01:07:04;18.10;;;9.50;;
5475;SDS011;2760;50.000;9.194;2022-11-11T01:09:49;17.33;;;9.37;;
5475;SDS011;2760;50.000;9.194;2022-11-11T01:12:35;16.73;;;8.80;;
5475;SDS011;2760;50.000;9.194;2022-11-11T01:15:21;18.93;;;9.40;;
5475;SDS011;2760;50.000;9.194;2022-11-11T01:18:08;15.23;;;9.00;;
5475;SDS011;2760;50.000;9.194;2022-11-11T01:20:58;9.73;;;7.00;;
5475;SDS011;2760;50.000;9.194;2022-11-11T01:23:55;11.27;;;7.67;;
5475;SDS011;2760;50.000;9.194;2022-11-11T01:26:40;13.53;;;8.70;;
5475;SDS011;2760;50.000;9.194;2022-11-11T01:29:26;16.17;;;9.27;;
5475;SDS011;2760;50.000;9.194;2022-11-11T01:32:12;17.47;;;9.70;;
5475;SDS011;2760;50.000;9.194;2022-11-11T01:35:01;14.27;;;9.10;;
5475;SDS011;2760;50.000;9.194;2022-11-11T01:37:47;15.20;;;7.53;;
5475;SDS011;2760;50.000;9.194;2022-11-11T01:40:38;13.90;;;7.87;;
5475;SDS011;2760;50.000;9.194;2022-11-11T01:43:25;20.57;;;9.03;;
5475;SDS011;2760;50.000;9.194;2022-11-11T01:46:14;29.00;;;9.30;;
5475;SDS011;2760;50.000;9.194;2022-11-11T01:49:24;36.63;;;8.77;;
5475;SDS011;2760;50.000;9.194;2022-11-11T01:52:14;19.53;;;8.07;;
5475;SDS011;2760;50.000;9.194;2022-11-11T01:55:04;17.47;;;8.77;;
5475;SDS011;2760;50.000;9.194;2022-11-11T01:57:55;8.63;;;6.90;;
5475;SDS011;2760;50.000;9.194;2022-11-11T02:00:44;14.20;;;8.63;;
5475;SDS011;2760;50.000;9.194;2022-11-11T02:03:30;16.30;;;7.20;;
5475;SDS011;2760;50.000;9.194;2022-11-11T02:06:20;13.20;;;7.50;;
5475;SDS011;2760;50.000;9.194;2022-11-11T02:09:07;13.00;;;6.70;;
5475;SDS011;2760;50.000;9.194;2022-11-11T02:11:54;11.67;;;5.80;;
5475;SDS011;2760;50.000;9.194;2022-11-11T02:15:00;12.50;;;6.80;;
5475;SDS011;2760;50.000;9.194;2022-11-11T02:17:48;9.20;;;5.97;;
5475;SDS011;2760;50.000;9.194;2022-11-11T02:20:35;13.33;;;6.77;;
5475;SDS011;2760;50.000;9.194;2022-11-11T02:23:23;10.63;;;5.80;;
5475;SDS011;2760;50.000;9.194;2022-11-11T02:26:16;12.07;;;7.10;;
5475;SDS011;2760;50.000;9.194;2022-11-11T02:29:03;8.60;;;5.37;;
5475;SDS011;2760;50.000;9.194;2022-11-11T02:31:56;5.87;;;5.27;;
5475;SDS011;2760;50.000;9.194;2022-11-11T02:34:42;7.20;;;6.03;;
5475;SDS011;2760;50.000;9.194;2022-11-11T02:37:27;9.20;;;5.43;;
5475;SDS011;2760;50.000;9.194;2022-11-11T02:40:15;12.70;;;6.60;;
5475;SDS011;2760;50.000;9.194;2022-11-11T02:43:04;8.10;;;5.40;;
5475;SDS011;2760;50.000;9.194;2022-11-11T02:45:50;7.50;;;5.87;;
5475;SDS011;2760;50.000;9.194;2022-11-11T02:48:36;12.00;;;5.73;;
5475;SDS011;2760;50.000;9.194;2022-11-11T02:51:22;10.33;;;5.70;;
5475;SDS011;2760;50.000;9.194;2022-11-11T02:54:08;13.57;;;6.83;;
5475;SDS011;2760;50.000;9.194;2022-11-11T02:56:53;13.27;;;6.73;;
5475;SDS011;2760;50.000;9.194;2022-11-11T02:59:52;10.43;;;5.63;;
5475;SDS011;2760;50.000;9.194;2022-11-11T03:02:39;11.83;;;4.93;;
5475;SDS011;2760;50.000;9.194;2022-11-11T03:05:25;9.80;;;6.23;;
5475;SDS011;2760;50.000;9.194;2022-11-11T03:08:11;7.07;;;5.60;;
5475;SDS011;2760;50.000;9.194;2022-11-11T03:10:59;6.27;;;5.37;;
5475;SDS011;2760;50.000;9.194;2022-11-11T03:13:45;12.73;;;5.40;;
5475;SDS011;2760;50.000;9.194;2022-11-11T03:16:33;19.10;;;6.00;;
5475;SDS011;2760;50.000;9.194;2022-11-11T03:19:37;8.20;;;5.57;;
5475;SDS011;2760;50.000;9.194;2022-11-11T03:22:23;12.10;;;5.47;;
5475;SDS011;2760;50.000;9.194;2022-11-11T03:25:08;10.13;;;6.07;;
5475;SDS011;2760;50.000;9.194;2022-11-11T03:28:12;11.27;;;5.40;;
5475;SDS011;2760;50.000;9.194;2022-11-11T03:30:59;9.63;;;6.00;;
5475;SDS011;2760;50.000;9.194;2022-11-11T03:33:47;13.87;;;6.03;;
5475;SDS011;2760;50.000;9.194;2022-11-11T03:36:35;13.77;;;6.77;;
5475;SDS011;2760;50.000;9.194;2022-11-11T03:39:35;11.80;;;6.47;;
5475;SDS011;2760;50.000;9.194;2022-11-11T03:42:21;12.57;;;7.07;;
5475;SDS011;2760;50.000;9.194;2022-11-11T03:45:07;15.73;;;5.63;;
5475;SDS011;2760;50.000;9.194;2022-11-11T03:47:53;8.53;;;4.40;;
5475;SDS011;2760;50.000;9.194;2022-11-11T03:50:42;12.00;;;4.67;;
5475;SDS011;2760;50.000;9.194;2022-11-11T03:53:30;9.30;;;5.07;;
5475;SDS011;2760;50.000;9.194;2022-11-11T03:56:16;8.83;;;4.37;;
5475;SDS011;2760;50.000;9.194;2022-11-11T03:59:02;9.17;;;5.60;;
5475;SDS011;2760;50.000;9.194;2022-11-11T04:01:48;10.40;;;5.40;;
5475;SDS011;2760;50.000;9.194;2022-11-11T04:04:51;8.50;;;4.97;;
5475;SDS011;2760;50.000;9.194;2022-11-11T04:07:55;6.23;;;4.77;;
5475;SDS011;2760;50.000;9.194;2022-11-11T04:10:59;10.37;;;4.80;;
5475;SDS011;2760;50.000;9.194;2022-11-11T04:13:47;7.93;;;4.63;;
5475;SDS011;2760;50.000;9.194;2022-11-11T04:16:50;9.90;;;5.10;;
5475;SDS011;2760;50.000;9.194;2022-11-11T04:19:38;9.07;;;5.47;;
5475;SDS011;2760;50.000;9.194;2022-11-11T04:22:41;6.97;;;5.03;;
5475;SDS011;2760;50.000;9.194;2022-11-11T04:25:28;8.80;;;5.63;;
5475;SDS011;2760;50.000;9.194;2022-11-11T04:28:31;12.30;;;5.23;;
5475;SDS011;2760;50.000;9.194;2022-11-11T04:31:46;7.40;;;5.90;;
5475;SDS011;2760;50.000;9.194;2022-11-11T04:34:46;13.63;;;5.00;;
5475;SDS011;2760;50.000;9.194;2022-11-11T04:37:34;7.17;;;4.70;;
5475;SDS011;2760;50.000;9.194;2022-11-11T04:40:20;7.20;;;5.03;;
5475;SDS011;2760;50.000;9.194;2022-11-11T04:43:25;5.93;;;5.40;;
5475;SDS011;2760;50.000;9.194;2022-11-11T04:46:11;5.97;;;4.87;;
5475;SDS011;2760;50.000;9.194;2022-11-11T04:48:55;5.83;;;5.23;;
5475;SDS011;2760;50.000;9.194;2022-11-11T04:51:41;6.87;;;5.00;;
5475;SDS011;2760;50.000;9.194;2022-11-11T04:54:44;7.70;;;5.40;;
5475;SDS011;2760;50.000;9.194;2022-11-11T04:57:44;6.53;;;4.93;;
5475;SDS011;2760;50.000;9.194;2022-11-11T05:00:33;8.73;;;5.50;;
5475;SDS011;2760;50.000;9.194;2022-11-11T05:03:19;10.30;;;6.20;;
5475;SDS011;2760;50.000;9.194;2022-11-11T05:06:06;10.63;;;7.53;;
5475;SDS011;2760;50.000;9.194;2022-11-11T05:09:09;10.97;;;7.00;;
5475;SDS011;2760;50.000;9.194;2022-11-11T05:11:55;9.33;;;6.60;;
5475;SDS011;2760;50.000;9.194;2022-11-11T05:14:40;7.53;;;6.10;;
5475;SDS011;2760;50.000;9.194;2022-11-11T05:17:45;10.87;;;5.00;;
5475;SDS011;2760;50.000;9.194;2022-11-11T05:20:53;6.23;;;4.80;;
5475;SDS011;2760;50.000;9.194;2022-11-11T05:23:57;7.20;;;4.27;;
5475;SDS011;2760;50.000;9.194;2022-11-11T05:27:00;5.30;;;4.10;;
5475;SDS011;2760;50.000;9.194;2022-11-11T05:29:47;6.70;;;5.20;;
5475;SDS011;2760;50.000;9.194;2022-11-11T05:32:34;7.00;;;4.30;;
5475;SDS011;2760;50.000;9.194;2022-11-11T05:35:21;25.40;;;14.50;;
5475;SDS011;2760;50.000;9.194;2022-11-11T05:38:07;9.50;;;4.40;;
5475;SDS011;2760;50.000;9.194;2022-11-11T05:41:04;7.87;;;4.97;;
5475;SDS011;2760;50.000;9.194;2022-11-11T05:43:50;6.70;;;5.90;;
5475;SDS011;2760;50.000;9.194;2022-11-11T05:46:38;12.83;;;5.30;;
5475;SDS011;2760;50.000;9.194;2022-11-11T05:49:25;8.30;;;4.93;;
5475;SDS011;2760;50.000;9.194;2022-11-11T05:52:18;4.83;;;4.33;;
5475;SDS011;2760;50.000;9.194;2022-11-11T05:55:04;8.07;;;4.63;;
5475;SDS011;2760;50.000;9.194;2022-11-11T05:57:51;5.90;;;4.53;;
5475;SDS011;2760;50.000;9.194;2022-11-11T06:00:37;5.50;;;4.40;;
5475;SDS011;2760;50.000;9.194;2022-11-11T06:03:22;12.13;;;4.63;;
5475;SDS011;2760;50.000;9.194;2022-11-11T06:06:09;10.40;;;5.97;;
5475;SDS011;2760;50.000;9.194;2022-11-11T06:08:56;6.73;;;4.93;;
5475;SDS011;2760;50.000;9.194;2022-11-11T06:11:43;12.27;;;6.70;;
5475;SDS011;2760;50.000;9.194;2022-11-11T06:14:29;8.30;;;6.30;;
5475;SDS011;2760;50.000;9.194;2022-11-11T06:17:14;12.70;;;7.90;;
5475;SDS011;2760;50.000;9.194;2022-11-11T06:20:00;12.93;;;7.93;;
5475;SDS011;2760;50.000;9.194;2022-11-11T06:22:46;13.50;;;8.57;;
5475;SDS011;2760;50.000;9.194;2022-11-11T06:25:44;21.00;;;11.20;;
5475;SDS011;2760;50.000;9.194;2022-11-11T06:28:53;19.67;;;11.37;;
5475;SDS011;2760;50.000;9.194;2022-11-11T06:31:39;18.23;;;11.17;;
5475;SDS011;2760;50.000;9.194;2022-11-11T06:34:25;22.03;;;10.70;;
5475;SDS011;2760;50.000;9.194;2022-11-11T06:37:11;14.20;;;8.77;;
5475;SDS011;2760;50.000;9.194;2022-11-11T06:39:58;12.37;;;6.90;;
5475;SDS011;2760;50.000;9.194;2022-11-11T06:42:45;12.80;;;5.20;;
5475;SDS011;2760;50.000;9.194;2022-11-11T06:45:31;10.63;;;4.53;;
5475;SDS011;2760;50.000;9.194;2022-11-11T06:48:20;8.67;;;6.07;;
5475;SDS011;2760;50.000;9.194;2022-11-11T06:51:11;10.43;;;6.13;;
5475;SDS011;2760;50.000;9.194;2022-11-11T06:54:00;19.87;;;8.47;;
5475;SDS011;2760;50.000;9.194;2022-11-11T06:56:46;15.27;;;7.63;;
5475;SDS011;2760;50.000;9.194;2022-11-11T06:59:33;13.60;;;7.77;;
5475;SDS011;2760;50.000;9.194;2022-11-11T07:02:19;10.03;;;7.27;;
5475;SDS011;2760;50.000;9.194;2022-11-11T07:05:08;13.33;;;7.77;;
5475;SDS011;2760;50.000;9.194;2022-11-11T07:07:54;16.27;;;7.23;;
5475;SDS011;2760;50.000;9.194;2022-11-11T07:10:42;12.13;;;7.90;;
5475;SDS011;2760;50.000;9.194;2022-11-11T07:13:28;13.03;;;6.70;;
5475;SDS011;2760;50.000;9.194;2022-11-11T07:16:16;16.40;;;6.50;;
5475;SDS011;2760;50.000;9.194;2022-11-11T07:19:02;9.70;;;6.30;;
5475;SDS011;2760;50.000;9.194;2022-11-11T07:21:49;12.63;;;5.73;;
5475;SDS011;2760;50.000;9.194;2022-11-11T07:24:35;10.10;;;5.93;;
5475;SDS011;2760;50.000;9.194;2022-11-11T07:27:21;10.83;;;7.10;;
5475;SDS011;2760;50.000;9.194;2022-11-11T07:30:07;11.77;;;7.23;;
5475;SDS011;2760;50.000;9.194;2022-11-11T07:32:56;13.30;;;7.93;;
5475;SDS011;2760;50.000;9.194;2022-11-11T07:35:43;11.93;;;5.63;;
5475;SDS011;2760;50.000;9.194;2022-11-11T07:38:29;14.30;;;5.00;;
5475;SDS011;2760;50.000;9.194;2022-11-11T07:41:15;12.70;;;8.10;;
5475;SDS011;2760;50.000;9.194;2022-11-11T07:44:02;19.93;;;8.27;;
5475;SDS011;2760;50.000;9.194;2022-11-11T07:46:48;14.30;;;8.37;;
5475;SDS011;2760;50.000;9.194;2022-11-11T07:49:36;11.90;;;6.60;;
5475;SDS011;2760;50.000;9.194;2022-11-11T07:52:22;13.07;;;8.70;;
5475;SDS011;2760;50.000;9.194;2022-11-11T07:55:10;12.23;;;8.97;;
5475;SDS011;2760;50.000;9.194;2022-11-11T07:57:56;10.57;;;6.80;;
5475;SDS011;2760;50.000;9.194;2022-11-11T08:00:42;14.60;;;7.90;;
5475;SDS011;2760;50.000;9.194;2022-11-11T08:03:28;15.50;;;8.30;;
5475;SDS011;2760;50.000;9.194;2022-11-11T08:06:18;11.23;;;7.40;;
5475;SDS011;2760;50.000;9.194;2022-11-11T08:09:05;10.20;;;7.70;;
5475;SDS011;2760;50.000;9.194;2022-11-11T08:11:56;11.77;;;8.23;;
5475;SDS011;2760;50.000;9.194;2022-11-11T08:14:59;11.90;;;7.30;;
5475;SDS011;2760;50.000;9.194;2022-11-11T08:17:45;11.13;;;7.57;;
5475;SDS011;2760;50.000;9.194;2022-11-11T08:20:30;16.53;;;7.00;;
5475;SDS011;2760;50.000;9.194;2022-11-11T08:23:18;15.97;;;8.57;;
5475;SDS011;2760;50.000;9.194;2022-11-11T08:26:14;12.40;;;8.80;;
5475;SDS011;2760;50.000;9.194;2022-11-11T08:29:00;14.20;;;7.80;;
5475;SDS011;2760;50.000;9.194;2022-11-11T08:31:46;17.10;;;8.57;;
5475;SDS011;2760;50.000;9.194;2022-11-11T08:34:33;14.17;;;6.27;;
5475;SDS011;2760;50.000;9.194;2022-11-11T08:37:19;9.87;;;6.70;;
5475;SDS011;2760;50.000;9.194;2022-11-11T08:40:10;13.50;;;7.73;;
5475;SDS011;2760;50.000;9.194;2022-11-11T08:42:57;12.13;;;6.70;;
5475;SDS011;2760;50.000;9.194;2022-11-11T08:45:43;8.90;;;6.30;;
5475;SDS011;2760;50.000;9.194;2022-11-11T08:48:31;8.73;;;4.70;;
5475;SDS011;2760;50.000;9.194;2022-11-11T08:51:21;6.73;;;4.10;;
5475;SDS011;2760;50.000;9.194;2022-11-11T08:54:08;9.77;;;5.37;;
5475;SDS011;2760;50.000;9.194;2022-11-11T08:56:55;8.70;;;5.40;;
5475;SDS011;2760;50.000;9.194;2022-11-11T08:59:41;19.87;;;5.50;;
5475;SDS011;2760;50.000;9.194;2022-11-11T09:02:29;11.73;;;5.90;;
5475;SDS011;2760;50.000;9.194;2022-11-11T09:05:15;15.57;;;6.70;;
5475;SDS011;2760;50.000;9.194;2022-11-11T09:08:05;17.97;;;7.77;;
5475;SDS011;2760;50.000;9.194;2022-11-11T09:10:53;13.57;;;8.30;;
5475;SDS011;2760;50.000;9.194;2022-11-11T09:13:40;21.30;;;10.50;;
5475;SDS011;2760;50.000;9.194;2022-11-11T09:16:27;17.30;;;12.47;;
5475;SDS011;2760;50.000;9.194;2022-11-11T09:19:13;18.33;;;11.67;;
5475;SDS011;2760;50.000;9.194;2022-11-11T09:21:59;20.00;;;12.57;;
5475;SDS011;2760;50.000;9.194;2022-11-11T09:24:49;19.70;;;12.70;;
5475;SDS011;2760;50.000;9.194;2022-11-11T09:27:35;18.70;;;11.87;;
5475;SDS011;2760;50.000;9.194;2022-11-11T09:30:23;17.57;;;11.57;;
5475;SDS011;2760;50.000;9.194;2022-11-11T09:33:10;16.67;;;11.60;;
5475;SDS011;2760;50.000;9.194;2022-11-11T09:35:59;18.47;;;12.50;;
5475;SDS011;2760;50.000;9.194;2022-11-11T09:38:45;20.90;;;12.47;;
5475;SDS011;2760;50.000;9.194;2022-11-11T09:41:34;18.97;;;11.97;;
5475;SDS011;2760;50.000;9.194;2022-11-11T09:44:45;25.77;;;13.57;;
5475;SDS011;2760;50.000;9.194;2022-11-11T09:47:49;38.77;;;15.90;;
5475;SDS011;2760;50.000;9.194;2022-11-11T09:50:40;36.03;;;17.97;;
5475;SDS011;2760;50.000;9.194;2022-11-11T09:53:31;29.47;;;17.90;;
5475;SDS011;2760;50.000;9.194;2022-11-11T09:56:21;38.73;;;18.50;;
5475;SDS011;2760;50.000;9.194;2022-11-11T09:59:15;33.03;;;16.43;;
5475;SDS011;2760;50.000;9.194;2022-11-11T10:02:07;32.20;;;18.47;;
5475;SDS011;2760;50.000;9.194;2022-11-11T10:05:15;28.43;;;17.23;;
5475;SDS011;2760;50.000;9.194;2022-11-11T10:08:06;39.83;;;18.33;;
5475;SDS011;2760;50.000;9.194;2022-11-11T10:10:59;29.80;;;17.53;;
5475;SDS011;2760;50.000;9.194;2022-11-11T10:13:54;23.90;;;15.70;;
5475;SDS011;2760;50.000;9.194;2022-11-11T10:16:43;31.00;;;17.37;;
5475;SDS011;2760;50.000;9.194;2022-11-11T10:19:40;32.10;;;17.57;;
5475;SDS011;2760;50.000;9.194;2022-11-11T10:22:37;33.90;;;15.93;;
5475;SDS011;2760;50.000;9.194;2022-11-11T10:25:27;38.80;;;18.87;;
5475;SDS011;2760;50.000;9.194;2022-11-11T10:28:16;32.73;;;17.80;;
5475;SDS011;2760;50.000;9.194;2022-11-11T10:31:04;27.37;;;14.73;;
5475;SDS011;2760;50.000;9.194;2022-11-11T10:33:57;24.70;;;15.40;;
5475;SDS011;2760;50.000;9.194;2022-11-11T10:36:48;27.30;;;15.60;;
5475;SDS011;2760;50.000;9.194;2022-11-11T10:39:43;22.33;;;14.20;;
5475;SDS011;2760;50.000;9.194;2022-11-11T10:42:38;22.93;;;14.03;;
5475;SDS011;2760;50.000;9.194;2022-11-11T10:45:25;29.67;;;14.03;;
5475;SDS011;2760;50.000;9.194;2022-11-11T10:48:14;23.30;;;13.90;;
5475;SDS011;2760;50.000;9.194;2022-11-11T10:51:05;22.90;;;15.00;;
5475;SDS011;2760;50.000;9.194;2022-11-11T10:53:53;25.03;;;14.10;;
5475;SDS011;2760;50.000;9.194;2022-11-11T10:56:47;22.30;;;14.03;;
5475;SDS011;2760;50.000;9.194;2022-11-11T10:59:40;24.20;;;13.80;;
5475;SDS011;2760;50.000;9.194;2022-11-11T11:02:33;23.53;;;14.10;;
5475;SDS011;2760;50.000;9.194;2022-11-11T11:05:25;27.87;;;15.60;;
5475;SDS011;2760;50.000;9.194;2022-11-11T11:08:16;21.33;;;14.37;;
5475;SDS011;2760;50.000;9.194;2022-11-11T11:11:09;24.73;;;13.57;;
5475;SDS011;2760;50.000;9.194;2022-11-11T11:14:05;20.53;;;12.00;;
5475;SDS011;2760;50.000;9.194;2022-11-11T11:16:57;17.30;;;12.90;;
5475;SDS011;2760;50.000;9.194;2022-11-11T11:20:05;26.40;;;12.03;;
5475;SDS011;2760;50.000;9.194;2022-11-11T11:22:55;17.77;;;12.00;;
5475;SDS011;2760;50.000;9.194;2022-11-11T11:25:42;17.60;;;11.93;;
5475;SDS011;2760;50.000;9.194;2022-11-11T11:28:50;21.90;;;11.77;;
5475;SDS011;2760;50.000;9.194;2022-11-11T11:31:41;24.30;;;13.20;;
5475;SDS011;2760;50.000;9.194;2022-11-11T11:34:41;28.80;;;15.00;;
5475;SDS011;2760;50.000;9.194;2022-11-11T11:37:28;30.07;;;15.57;;
5475;SDS011;2760;50.000;9.194;2022-11-11T11:40:15;25.87;;;15.80;;
5475;SDS011;2760;50.000;9.194;2022-11-11T11:43:01;31.13;;;16.40;;
5475;SDS011;2760;50.000;9.194;2022-11-11T11:46:13;26.83;;;15.57;;
5475;SDS011;2760;50.000;9.194;2022-11-11T11:49:16;27.27;;;16.70;;
5475;SDS011;2760;50.000;9.194;2022-11-11T11:52:11;28.20;;;15.77;;
5475;SDS011;2760;50.000;9.194;2022-11-11T11:55:09;28.73;;;16.33;;
5475;SDS011;2760;50.000;9.194;2022-11-11T11:58:06;25.63;;;15.43;;
5475;SDS011;2760;50.000;9.194;2022-11-11T12:01:07;23.33;;;14.13;;
5475;SDS011;2760;50.000;9.194;2022-11-11T12:04:21;28.60;;;15.73;;
5475;SDS011;2760;50.000;9.194;2022-11-11T12:07:29;39.33;;;16.10;;
5475;SDS011;2760;50.000;9.194;2022-11-11T12:10:36;28.97;;;16.67;;
5475;SDS011;2760;50.000;9.194;2022-11-11T12:13:29;30.67;;;16.47;;
5475;SDS011;2760;50.000;9.194;2022-11-11T12:16:25;27.60;;;16.37;;
5475;SDS011;2760;50.000;9.194;2022-11-11T12:19:43;33.60;;;19.03;;
5475;SDS011;2760;50.000;9.194;2022-11-11T12:22:41;37.73;;;17.27;;
5475;SDS011;2760;50.000;9.194;2022-11-11T12:25:47;30.30;;;19.40;;
5475;SDS011;2760;50.000;9.194;2022-11-11T12:28:57;27.93;;;17.57;;
5475;SDS011;2760;50.000;9.194;2022-11-11T12:32:14;38.27;;;19.70;;
5475;SDS011;2760;50.000;9.194;2022-11-11T12:38:33;32.03;;;18.13;;
5475;SDS011;2760;50.000;9.194;2022-11-11T12:41:47;28.27;;;18.57;;
5475;SDS011;2760;50.000;9.194;2022-11-11T12:44:45;27.10;;;18.53;;
5475;SDS011;2760;50.000;9.194;2022-11-11T12:47:42;31.37;;;18.53;;
5475;SDS011;2760;50.000;9.194;2022-11-11T12:50:42;25.27;;;17.70;;
5475;SDS011;2760;50.000;9.194;2022-11-11T12:53:36;25.20;;;17.87;;
5475;SDS011;2760;50.000;9.194;2022-11-11T12:56:31;26.13;;;17.17;;
5475;SDS011;2760;50.000;9.194;2022-11-11T12:59:28;27.77;;;18.40;;
5475;SDS011;2760;50.000;9.194;2022-11-11T13:02:30;28.43;;;18.70;;
5475;SDS011;2760;50.000;9.194;2022-11-11T13:05:36;30.10;;;19.00;;
5475;SDS011;2760;50.000;9.194;2022-11-11T13:11:47;26.33;;;18.13;;
5475;SDS011;2760;50.000;9.194;2022-11-11T13:14:46;28.27;;;17.37;;
5475;SDS011;2760;50.000;9.194;2022-11-11T13:18:00;31.93;;;17.60;;
5475;SDS011;2760;50.000;9.194;2022-11-11T13:20:51;31.27;;;17.50;;
5475;SDS011;2760;50.000;9.194;2022-11-11T13:23:43;31.40;;;19.10;;
5475;SDS011;2760;50.000;9.194;2022-11-11T13:26:32;31.17;;;18.10;;
5475;SDS011;2760;50.000;9.194;2022-11-11T13:29:34;27.50;;;18.67;;
5475;SDS011;2760;50.000;9.194;2022-11-11T13:32:45;28.50;;;18.17;;
5475;SDS011;2760;50.000;9.194;2022-11-11T13:35:35;25.23;;;17.70;;
5475;SDS011;2760;50.000;9.194;2022-11-11T13:38:26;26.30;;;17.30;;
5475;SDS011;2760;50.000;9.194;2022-11-11T13:41:19;25.97;;;16.73;;
5475;SDS011;2760;50.000;9.194;2022-11-11T13:44:08;31.33;;;17.53;;
5475;SDS011;2760;50.000;9.194;2022-11-11T13:47:03;42.30;;;16.60;;
5475;SDS011;2760;50.000;9.194;2022-11-11T13:49:57;27.27;;;16.33;;
5475;SDS011;2760;50.000;9.194;2022-11-11T13:52:51;25.60;;;15.90;;
5475;SDS011;2760;50.000;9.194;2022-11-11T13:55:43;32.27;;;18.03;;
5475;SDS011;2760;50.000;9.194;2022-11-11T13:58:33;30.10;;;17.03;;
5475;SDS011;2760;50.000;9.194;2022-11-11T14:01:24;22.57;;;15.77;;
5475;SDS011;2760;50.000;9.194;2022-11-11T14:04:18;25.77;;;16.77;;
5475;SDS011;2760;50.000;9.194;2022-11-11T14:07:06;28.40;;;15.70;;
5475;SDS011;2760;50.000;9.194;2022-11-11T14:09:55;22.37;;;15.93;;
5475;SDS011;2760;50.000;9.194;2022-11-11T14:12:47;25.53;;;16.10;;
5475;SDS011;2760;50.000;9.194;2022-11-11T14:15:35;27.40;;;16.27;;
5475;SDS011;2760;50.000;9.194;2022-11-11T14:18:31;29.83;;;17.27;;
5475;SDS011;2760;50.000;9.194;2022-11-11T14:24:38;25.10;;;14.37;;
5475;SDS011;2760;50.000;9.194;2022-11-11T14:27:26;27.03;;;18.20;;
5475;SDS011;2760;50.000;9.194;2022-11-11T14:30:31;25.33;;;15.53;;
5475;SDS011;2760;50.000;9.194;2022-11-11T14:33:28;21.73;;;15.63;;
5475;SDS011;2760;50.000;9.194;2022-11-11T14:36:26;24.90;;;15.23;;
5475;SDS011;2760;50.000;9.194;2022-11-11T14:42:41;23.03;;;14.37;;
5475;SDS011;2760;50.000;9.194;2022-11-11T14:52:36;30.77;;;15.87;;
5475;SDS011;2760;50.000;9.194;2022-11-11T14:55:24;24.97;;;17.37;;
5475;SDS011;2760;50.000;9.194;2022-11-11T14:58:12;25.57;;;17.10;;
5475;SDS011;2760;50.000;9.194;2022-11-11T15:01:03;33.50;;;17.70;;
5475;SDS011;2760;50.000;9.194;2022-11-11T15:03:59;28.47;;;18.00;;
5475;SDS011;2760;50.000;9.194;2022-11-11T15:06:47;27.73;;;18.10;;
5475;SDS011;2760;50.000;9.194;2022-11-11T15:09:44;32.43;;;19.30;;
5475;SDS011;2760;50.000;9.194;2022-11-11T15:12:41;29.80;;;19.50;;
5475;SDS011;2760;50.000;9.194;2022-11-11T15:15:37;29.90;;;19.00;;
5475;SDS011;2760;50.000;9.194;2022-11-11T15:21:39;36.27;;;20.07;;
5475;SDS011;2760;50.000;9.194;2022-11-11T15:24:35;32.87;;;21.83;;
5475;SDS011;2760;50.000;9.194;2022-11-11T15:27:35;31.23;;;19.97;;
5475;SDS011;2760;50.000;9.194;2022-11-11T15:30:35;36.43;;;21.93;;
5475;SDS011;2760;50.000;9.194;2022-11-11T15:33:40;42.63;;;22.83;;
5475;SDS011;2760;50.000;9.194;2022-11-11T15:36:35;42.60;;;23.13;;
5475;SDS011;2760;50.000;9.194;2022-11-11T15:39:35;44.80;;;22.37;;
5475;SDS011;2760;50.000;9.194;2022-11-11T15:42:28;50.73;;;25.17;;
5475;SDS011;2760;50.000;9.194;2022-11-11T15:45:19;57.43;;;27.23;;
5475;SDS011;2760;50.000;9.194;2022-11-11T15:48:12;48.83;;;26.67;;
5475;SDS011;2760;50.000;9.194;2022-11-11T15:51:14;51.77;;;25.70;;
5475;SDS011;2760;50.000;9.194;2022-11-11T15:54:13;47.13;;;25.43;;
5475;SDS011;2760;50.000;9.194;2022-11-11T15:57:20;55.83;;;26.67;;
5475;SDS011;2760;50.000;9.194;2022-11-11T16:00:23;57.10;;;26.17;;
5475;SDS011;2760;50.000;9.194;2022-11-11T16:03:13;68.43;;;26.27;;
5475;SDS011;2760;50.000;9.194;2022-11-11T16:06:02;83.23;;;27.87;;
5475;SDS011;2760;50.000;9.194;2022-11-11T16:08:51;58.87;;;25.80;;
5475;SDS011;2760;50.000;9.194;2022-11-11T16:11:47;93.47;;;28.20;;
5475;SDS011;2760;50.000;9.194;2022-11-11T16:14:36;58.70;;;28.83;;
5475;SDS011;2760;50.000;9.194;2022-11-11T16:17:28;62.77;;;29.70;;
5475;SDS011;2760;50.000;9.194;2022-11-11T16:20:19;71.43;;;33.40;;
5475;SDS011;2760;50.000;9.194;2022-11-11T16:23:12;73.77;;;31.97;;
5475;SDS011;2760;50.000;9.194;2022-11-11T16:26:00;54.90;;;29.43;;
5475;SDS011;2760;50.000;9.194;2022-11-11T16:28:50;57.67;;;29.47;;
5475;SDS011;2760;50.000;9.194;2022-11-11T16:31:38;63.13;;;31.37;;
5475;SDS011;2760;50.000;9.194;2022-11-11T16:34:35;64.47;;;31.57;;
5475;SDS011;2760;50.000;9.194;2022-11-11T16:37:28;67.27;;;29.60;;
5475;SDS011;2760;50.000;9.194;2022-11-11T16:43:27;71.40;;;30.97;;
5475;SDS011;2760;50.000;9.194;2022-11-11T16:49:26;66.77;;;32.03;;
5475;SDS011;2760;50.000;9.194;2022-11-11T16:52:15;89.33;;;35.17;;
5475;SDS011;2760;50.000;9.194;2022-11-11T16:55:02;78.63;;;27.00;;
5475;SDS011;2760;50.000;9.194;2022-11-11T16:57:49;84.83;;;32.17;;
5475;SDS011;2760;50.000;9.194;2022-11-11T17:00:35;74.30;;;31.20;;
5475;SDS011;2760;50.000;9.194;2022-11-11T17:03:23;66.83;;;29.70;;
5475;SDS011;2760;50.000;9.194;2022-11-11T17:06:10;82.60;;;30.43;;
5475;SDS011;2760;50.000;9.194;2022-11-11T17:08:56;99.60;;;29.50;;
5475;SDS011;2760;50.000;9.194;2022-11-11T17:11:43;63.47;;;26.90;;
5475;SDS011;2760;50.000;9.194;2022-11-11T17:14:29;59.53;;;28.30;;
5475;SDS011;2760;50.000;9.194;2022-11-11T17:17:16;83.73;;;28.10;;
5475;SDS011;2760;50.000;9.194;2022-11-11T17:20:05;89.07;;;26.73;;
5475;SDS011;2760;50.000;9.194;2022-11-11T17:22:54;59.53;;;27.20;;
5475;SDS011;2760;50.000;9.194;2022-11-11T17:25:41;99.50;;;27.30;;
5475;SDS011;2760;50.000;9.194;2022-11-11T17:28:29;85.73;;;30.17;;
5475;SDS011;2760;50.000;9.194;2022-11-11T17:31:17;84.47;;;30.87;;
5475;SDS011;2760;50.000;9.194;2022-11-11T17:34:06;89.00;;;29.17;;
5475;SDS011;2760;50.000;9.194;2022-11-11T17:36:53;77.00;;;27.90;;
5475;SDS011;2760;50.000;9.194;2022-11-11T17:39:39;61.10;;;27.93;;
5475;SDS011;2760;50.000;9.194;2022-11-11T17:42:28;49.07;;;25.40;;
5475;SDS011;2760;50.000;9.194;2022-11-11T17:45:13;59.13;;;23.90;;
5475;SDS011;2760;50.000;9.194;2022-11-11T17:48:01;73.53;;;24.17;;
5475;SDS011;2760;50.000;9.194;2022-11-11T17:50:46;75.53;;;23.80;;
5475;SDS011;2760;50.000;9.194;2022-11-11T17:53:34;63.73;;;23.93;;
5475;SDS011;2760;50.000;9.194;2022-11-11T17:56:20;59.40;;;20.83;;